Time;durP1;ratioP1;P1;durP2;ratioP2;P2;SDS_P1;SDS_P2;PMS_P1;PMS_P2;Temp;Humidity;BMP_temperature;BMP_pressure;BME280_temperature;BME280_humidity;BME280_pressure;Samples;Min_cycle;Max_cycle;Signal;HPM_P1;HPM_P2
2022/08/21 00:01:42;;;;;;;7.30;3.42;;;;;;;15.59;100.00;101489.06;5092279;28;20380;-57
2022/08/21 00:04:08;;;;;;;10.10;3.65;;;;;;;15.83;100.00;101545.56;5091585;28;20039;-56
2022/08/21 00:06:34;;;;;;;11.27;3.97;;;;;;;15.81;100.00;101520.00;5074452;28;20032;-56
2022/08/21 00:09:01;;;;;;;5.85;2.90;;;;;;;15.81;100.00;101514.69;5092462;28;20050;-60
2022/08/21 00:11:27;;;;;;;7.50;3.30;;;;;;;15.90;100.00;101527.56;5073931;28;20071;-59
2022/08/21 00:13:52;;;;;;;8.02;3.20;;;;;;;15.93;100.00;101527.44;5092644;28;20028;-55
2022/08/21 00:16:18;;;;;;;6.20;2.60;;;;;;;15.93;100.00;101514.16;5073974;28;20030;-53
2022/08/21 00:18:43;;;;;;;10.18;3.20;;;;;;;16.01;100.00;101531.50;5090893;28;20086;-59
2022/08/21 00:21:13;;;;;;;9.75;3.15;;;;;;;16.03;100.00;101523.44;5092117;28;20081;-57
2022/08/21 00:23:39;;;;;;;7.70;2.92;;;;;;;15.83;100.00;101486.28;5092116;28;20046;-56
2022/08/21 00:26:05;;;;;;;9.35;2.92;;;;;;;16.02;100.00;101517.28;5092083;28;20036;-56
2022/08/21 00:28:31;;;;;;;13.15;3.55;;;;;;;15.94;100.00;101513.22;5092108;28;20043;-57
2022/08/21 00:30:57;;;;;;;12.52;3.47;;;;;;;15.97;100.00;101515.75;5092039;28;20059;-58
2022/08/21 00:33:23;;;;;;;10.93;3.50;;;;;;;15.93;100.00;101511.50;5074227;28;20138;-57
2022/08/21 00:35:48;;;;;;;9.95;3.63;;;;;;;15.82;100.00;101506.66;5092204;28;20113;-59
2022/08/21 00:38:14;;;;;;;9.25;3.00;;;;;;;15.32;100.00;101431.88;5074042;28;20083;-57
2022/08/21 00:40:39;;;;;;;8.77;3.15;;;;;;;15.80;100.00;101521.78;5073896;28;20044;-58
2022/08/21 00:43:07;;;;;;;12.93;3.85;;;;;;;15.51;100.00;101482.38;5092070;28;20028;-53
2022/08/21 00:45:33;;;;;;;9.07;3.42;;;;;;;15.45;100.00;101474.63;5091839;28;20081;-54
2022/08/21 00:47:58;;;;;;;5.28;3.08;;;;;;;15.65;100.00;101522.44;5074340;28;20028;-56
2022/08/21 00:50:31;;;;;;;9.48;3.03;;;;;;;15.58;100.00;101519.22;5091010;28;20044;-55
2022/08/21 00:52:57;;;;;;;10.43;3.17;;;;;;;15.53;100.00;101517.66;5074269;28;20028;-55
2022/08/21 00:55:23;;;;;;;10.93;3.42;;;;;;;15.49;100.00;101514.28;5091958;28;20032;-56
2022/08/21 00:57:52;;;;;;;9.07;3.63;;;;;;;15.47;100.00;101512.63;5073992;28;20032;-58
2022/08/21 01:00:22;;;;;;;11.48;3.70;;;;;;;14.37;100.00;101333.34;5073760;28;20552;-59
2022/08/21 01:02:47;;;;;;;6.95;3.90;;;;;;;15.08;100.00;101449.66;5092115;28;20028;-61
2022/08/21 01:05:13;;;;;;;8.10;3.17;;;;;;;15.42;100.00;101507.47;5091938;28;20046;-57
2022/08/21 01:07:40;;;;;;;10.43;3.50;;;;;;;15.08;100.00;101460.28;5091842;28;20398;-58
2022/08/21 01:10:07;;;;;;;8.90;3.72;;;;;;;15.39;100.00;101507.59;5073460;28;20047;-58
2022/08/21 01:12:33;;;;;;;7.28;2.72;;;;;;;15.32;100.00;101490.22;5073335;28;20075;-56
2022/08/21 01:14:59;;;;;;;12.02;3.85;;;;;;;15.33;100.00;101510.50;5091973;28;20055;-56
2022/08/21 01:17:24;;;;;;;6.80;3.22;;;;;;;15.31;100.00;101508.84;5073927;28;20394;-57
2022/08/21 01:19:50;;;;;;;12.95;3.70;;;;;;;15.28;100.00;101499.22;5077307;28;20073;-58
2022/08/21 01:22:15;;;;;;;9.95;3.08;;;;;;;15.28;100.00;101503.66;5095355;28;20032;-63
2022/08/21 01:24:41;;;;;;;9.48;4.10;;;;;;;15.00;100.00;101454.41;5077317;28;20032;-59
2022/08/21 01:27:06;;;;;;;16.38;3.85;;;;;;;14.79;100.00;101423.47;5094186;28;20063;-61
2022/08/21 01:29:36;;;;;;;9.10;3.83;;;;;;;14.97;100.00;101462.47;5095418;28;20378;-58
2022/08/21 01:32:09;;;;;;;9.65;3.35;;;;;;;15.17;100.00;101502.31;5060634;28;20348;-57
2022/08/21 01:34:36;;;;;;;9.45;3.38;;;;;;;15.07;100.00;101482.41;5093913;28;20056;-59
2022/08/21 01:37:02;;;;;;;7.85;3.47;;;;;;;15.17;100.00;101501.47;5095055;28;20113;-56
2022/08/21 01:39:28;;;;;;;7.97;3.67;;;;;;;15.17;100.00;101501.47;5094894;28;20055;-56
2022/08/21 01:41:53;;;;;;;9.00;3.72;;;;;;;15.14;100.00;101499.81;5094645;28;20089;-59
2022/08/21 01:44:21;;;;;;;8.25;3.38;;;;;;;15.16;100.00;101499.72;5093903;28;20043;-54
2022/08/21 01:46:47;;;;;;;9.40;3.22;;;;;;;15.11;100.00;101499.91;5076972;28;20515;-61
2022/08/21 01:49:13;;;;;;;8.77;3.60;;;;;;;15.08;100.00;101501.81;5077024;28;20132;-60
2022/08/21 01:51:38;;;;;;;8.38;3.03;;;;;;;14.76;100.00;101447.47;5076308;28;20530;-57
2022/08/21 01:54:03;;;;;;;9.45;3.22;;;;;;;15.04;100.00;101492.25;5093608;28;20497;-56
2022/08/21 01:56:36;;;;;;;9.20;3.28;;;;;;;14.90;100.00;101471.63;5094625;28;20036;-57
2022/08/21 01:59:02;;;;;;;9.15;3.22;;;;;;;14.95;100.00;101489.97;5094941;28;20035;-56
2022/08/21 02:01:27;;;;;;;7.88;2.95;;;;;;;;;;5094696;28;20032;-57
2022/08/21 02:03:52;;;;;;;7.10;4.00;;;;;;;14.86;nan;101483.25;5094770;28;20081;-57
2022/08/21 02:06:17;;;;;;;9.95;3.35;;;;;;;14.87;nan;101477.03;5076488;28;20278;-55
2022/08/21 02:08:43;;;;;;;6.28;3.35;;;;;;;14.67;nan;101441.66;5094529;28;20058;-57
2022/08/21 02:11:08;;;;;;;10.15;3.58;;;;;;;14.86;nan;101472.66;5076144;28;20479;-53
2022/08/21 02:13:34;;;;;;;8.68;3.38;;;;;;;14.84;nan;101477.16;5094864;28;20039;-56
2022/08/21 02:15:59;;;;;;;11.82;3.47;;;;;;;14.82;nan;101471.06;5094400;28;20033;-58
2022/08/21 02:18:24;;;;;;;9.93;3.55;;;;;;;14.81;nan;101466.69;5076137;28;20047;-55
2022/08/21 02:20:50;;;;;;;9.88;3.20;;;;;;;14.56;nan;101418.25;5094224;28;20044;-56
2022/08/21 02:23:16;;;;;;;8.60;3.80;;;;;;;14.80;nan;101464.09;5076166;28;20105;-60
2022/08/21 02:25:41;;;;;;;10.27;3.55;;;;;;;14.80;nan;101478.19;5094096;28;20389;-55
2022/08/21 02:28:09;;;;;;;8.15;3.10;;;;;;;14.74;nan;101461.69;5094162;28;20031;-56
2022/08/21 02:30:39;;;;;;;7.95;3.70;;;;;;;14.75;nan;101472.22;5093058;28;20030;-56
2022/08/21 02:33:05;;;;;;;11.38;3.05;;;;;;;14.50;nan;101429.94;5075930;28;20032;-57
2022/08/21 02:35:31;;;;;;;10.98;3.75;;;;;;;14.65;nan;101465.56;5075913;28;20036;-56
2022/08/21 02:38:00;;;;;;;10.20;3.70;;;;;;;14.60;nan;101467.50;5093828;28;20421;-57
2022/08/21 02:40:28;;;;;;;8.00;3.22;;;;;;;14.53;nan;101463.41;5093878;28;20051;-57
2022/08/21 02:42:54;;;;;;;10.05;3.20;;;;;;;14.56;nan;101463.28;5093864;28;20086;-54
2022/08/21 02:45:20;;;;;;;7.70;3.83;;;;;;;14.60;nan;101464.88;5075847;28;20052;-58
2022/08/21 02:47:59;;;;;;;9.40;4.05;;;;;;;14.25;nan;101410.56;5075789;28;20386;-54
2022/08/21 02:50:32;;;;;;;14.02;4.65;;;;;;;14.55;nan;101464.19;5075652;28;20042;-55
2022/08/21 02:52:57;;;;;;;13.50;4.50;;;;;;;14.51;nan;101457.28;5092433;28;20494;-57
2022/08/21 02:55:26;;;;;;;13.00;5.32;;;;;;;14.21;nan;101402.81;5075395;28;20044;-56
2022/08/21 02:57:52;;;;;;;15.30;5.38;;;;;;;14.24;nan;101408.00;5093674;28;20036;-56
2022/08/21 03:00:20;;;;;;;9.57;4.63;;;;;;;14.25;nan;101407.94;5093428;28;20035;-57
2022/08/21 03:02:46;;;;;;;9.98;4.82;;;;;;;14.52;nan;101459.00;5058721;28;20032;-57
2022/08/21 03:05:12;;;;;;;12.32;5.32;;;;;;;14.20;nan;101409.03;5093365;28;20073;-58
2022/08/21 03:07:39;;;;;;;15.32;6.20;;;;;;;14.49;nan;101461.78;5092423;28;20024;-62
2022/08/21 03:10:05;;;;;;;18.90;5.97;;;;;;;14.50;nan;101461.72;5093231;28;20036;-56
2022/08/21 03:12:30;;;;;;;11.25;4.95;;;;;;;14.46;nan;101440.69;5093066;28;20120;-59
2022/08/21 03:14:57;;;;;;;7.90;4.95;;;;;;;14.45;nan;101450.44;5093272;28;20082;-59
2022/08/21 03:17:24;;;;;;;18.00;4.85;;;;;;;14.49;nan;101449.41;5091972;28;20043;-61
2022/08/21 03:19:49;;;;;;;13.82;5.20;;;;;;;14.51;nan;101444.91;5091916;28;20081;-58
2022/08/21 03:22:15;;;;;;;15.07;5.00;;;;;;;14.46;nan;101438.06;5074482;28;20063;-60
2022/08/21 03:24:40;;;;;;;8.95;4.20;;;;;;;14.47;nan;101442.44;5074981;28;20032;-56
2022/08/21 03:27:05;;;;;;;12.43;5.13;;;;;;;14.45;nan;101447.78;5092862;28;20124;-54
2022/08/21 03:29:30;;;;;;;11.50;4.28;;;;;;;13.95;nan;101359.66;5093065;28;20031;-54
2022/08/21 03:31:56;;;;;;;7.68;4.13;;;;;;;14.46;nan;101443.34;5075014;28;20479;-60
2022/08/21 03:34:21;;;;;;;14.40;4.93;;;;;;;14.41;nan;101432.94;5092735;28;20036;-57
2022/08/21 03:36:48;;;;;;;7.88;4.70;;;;;;;14.44;nan;101429.31;5092766;28;20070;-55
2022/08/21 03:39:15;;;;;;;10.52;4.72;;;;;;;14.48;nan;101434.41;5057936;28;20085;-50
2022/08/21 03:41:41;;;;;;;11.60;4.88;;;;;;;14.44;nan;101430.19;5074247;28;20040;-60
2022/08/21 03:44:06;;;;;;;12.10;5.05;;;;;;;14.44;nan;101434.63;5092545;28;20119;-56
2022/08/21 03:46:31;;;;;;;5.65;4.68;;;;;;;14.45;nan;101431.03;5091430;28;20043;-57
2022/08/21 03:48:57;;;;;;;12.50;4.90;;;;;;;14.19;nan;101386.97;5092573;28;20180;-55
2022/08/21 03:51:22;;;;;;;14.55;5.50;;;;;;;14.21;nan;101381.63;5092817;28;20032;-58
2022/08/21 03:53:48;;;;;;;12.25;5.03;;;;;;;14.53;nan;101434.25;5092770;28;20040;-57
2022/08/21 03:56:13;;;;;;;12.10;4.03;;;;;;;14.22;nan;101378.91;5092617;28;20024;-58
2022/08/21 03:58:38;;;;;;;11.15;4.28;;;;;;;14.53;nan;101432.47;5092704;28;20067;-54
2022/08/21 04:01:06;;;;;;;14.40;4.60;;;;;;;14.46;nan;101430.97;5087345;28;20043;-52
2022/08/21 04:03:31;;;;;;;8.50;4.20;;;;;;;14.47;nan;101438.00;5073672;28;20067;-58
2022/08/21 04:05:57;;;;;;;13.57;5.32;;;;;;;14.51;nan;101433.44;5057377;28;20450;-56
2022/08/21 04:08:23;;;;;;;11.65;5.13;;;;;;;14.16;nan;101370.34;5092327;28;20074;-56
2022/08/21 04:10:50;;;;;;;11.80;5.13;;;;;;;14.47;nan;101416.81;5091286;28;20510;-59
2022/08/21 04:13:16;;;;;;;10.75;5.40;;;;;;;14.22;nan;101386.88;5092313;28;20067;-57
2022/08/21 04:15:41;;;;;;;13.38;5.90;;;;;;;14.52;nan;101430.75;5092397;28;20056;-58
2022/08/21 04:18:08;;;;;;;11.77;5.18;;;;;;;14.49;nan;101425.56;5092244;28;20060;-58
2022/08/21 04:20:34;;;;;;;11.18;5.28;;;;;;;14.24;nan;101384.16;5074413;28;20028;-54
2022/08/21 04:23:00;;;;;;;13.00;5.85;;;;;;;14.19;nan;101389.63;5074447;28;20039;-59
2022/08/21 04:25:26;;;;;;;9.85;4.38;;;;;;;14.46;nan;101436.28;5074358;28;20028;-55
2022/08/21 04:27:51;;;;;;;10.15;4.75;;;;;;;14.42;nan;101433.78;5092341;28;20403;-58
2022/08/21 04:30:17;;;;;;;12.85;4.78;;;;;;;14.49;nan;101449.41;5092242;28;20037;-59
2022/08/21 04:32:47;;;;;;;11.35;4.22;;;;;;;14.49;nan;101441.44;5092085;28;20028;-59
2022/08/21 04:35:16;;;;;;;8.75;3.95;;;;;;;14.03;nan;101359.38;5092312;28;20032;-57
2022/08/21 04:37:41;;;;;;;8.90;3.75;;;;;;;14.48;nan;101426.47;5092134;28;20040;-54
2022/08/21 04:40:08;;;;;;;16.13;4.88;;;;;;;14.59;nan;101450.75;5090728;28;20040;-57
2022/08/21 04:42:44;;;;;;;14.93;4.40;;;;;;;14.62;nan;101461.22;5092049;28;20039;-60
2022/08/21 04:45:17;;;;;;;10.27;3.75;;;;;;;14.43;nan;101422.28;5074075;28;20028;-53
2022/08/21 04:47:43;;;;;;;8.05;3.72;;;;;;;14.41;nan;101416.19;5074089;28;20102;-59
2022/08/21 04:50:08;;;;;;;13.20;3.97;;;;;;;14.29;nan;101400.75;5073961;28;20135;-58
2022/08/21 04:52:33;;;;;;;13.48;4.28;;;;;;;14.60;nan;101460.44;5092315;28;20391;-59
2022/08/21 04:55:00;;;;;;;7.55;3.92;;;;;;;14.61;nan;101469.25;5061158;28;20089;-55
2022/08/21 04:57:26;;;;;;;12.48;4.15;;;;;;;14.58;nan;101456.13;5077662;28;20028;-57
2022/08/21 04:59:52;;;;;;;10.88;4.30;;;;;;;14.60;nan;101478.97;5096167;28;20044;-57
2022/08/21 05:02:18;;;;;;;13.10;4.45;;;;;;;14.59;nan;101466.66;5095863;28;20426;-59
2022/08/21 05:04:49;;;;;;;12.98;4.07;;;;;;;14.43;nan;101431.09;5077878;28;20039;-55
2022/08/21 05:07:21;;;;;;;8.00;4.63;;;;;;;14.74;nan;101469.66;5095642;28;20043;-57
2022/08/21 05:09:47;;;;;;;11.90;5.55;;;;;;;14.61;nan;101430.38;5077473;28;20035;-55
2022/08/21 05:12:12;;;;;;;12.77;4.78;;;;;;;14.85;nan;101456.81;5095774;28;20398;-58
2022/08/21 05:14:38;;;;;;;11.10;4.70;;;;;;;14.63;nan;101425.88;5077759;28;20115;-57
2022/08/21 05:17:04;;;;;;;12.00;4.78;;;;;;;14.61;nan;101411.84;5077734;28;20441;-58
2022/08/21 05:19:29;;;;;;;14.68;5.60;;;;;;;14.65;nan;101417.88;5095438;28;20028;-52
2022/08/21 05:21:55;;;;;;;13.68;5.85;;;;;;;14.67;nan;101416.03;5095493;28;20024;-52
2022/08/21 05:24:20;;;;;;;13.45;5.05;;;;;;;14.97;nan;101472.25;5077254;28;20020;-56
2022/08/21 05:26:45;;;;;;;11.20;5.38;;;;;;;14.93;nan;101446.78;5095627;28;20032;-59
2022/08/21 05:29:11;;;;;;;11.27;5.97;;;;;;;15.06;nan;101474.53;5077374;28;20063;-56
2022/08/21 05:31:37;;;;;;;14.35;6.20;;;;;;;15.08;nan;101470.00;5095462;28;20085;-60
2022/08/21 05:34:03;;;;;;;14.82;5.70;;;;;;;14.86;nan;101424.94;5077153;28;20066;-62
2022/08/21 05:36:29;;;;;;;12.25;5.30;;;;;;;14.95;nan;101427.22;5095125;28;20474;-57
2022/08/21 05:38:54;;;;;;;17.73;6.30;;;;;;;15.21;nan;101465.91;5094977;28;20032;-58
2022/08/21 05:41:20;;;;;;;14.25;6.85;;;;;;;14.97;nan;101412.09;5094893;28;20096;-57
2022/08/21 05:43:45;;;;;;;11.48;6.30;;;;;;;15.30;nan;101464.66;5095256;28;20035;-55
2022/08/21 05:46:11;;;;;;;14.90;5.88;;;;;;;15.18;nan;101426.25;5094998;28;20032;-54
2022/08/21 05:48:36;;;;;;;14.90;6.60;;;;;;;15.16;nan;101417.50;5060180;28;20028;-56
2022/08/21 05:51:07;;;;;;;18.83;6.70;;;;;;;15.48;nan;101455.97;5094935;28;20104;-58
2022/08/21 05:53:33;;;;;;;11.35;6.55;;;;;;;15.39;nan;101427.13;5093913;28;20039;-57
2022/08/21 05:55:58;;;;;;;13.57;6.60;;;;;;;15.39;nan;101414.75;5094527;28;20036;-59
2022/08/21 05:58:24;;;;;;;16.60;6.60;;;;;;;15.46;nan;101413.56;5076893;28;20040;-58
2022/08/21 06:00:50;;;;;;;17.23;6.78;;;;;;;15.29;nan;101381.59;5076685;28;20419;-59
2022/08/21 06:03:21;;;;;;;16.13;6.47;;;;;;;15.83;nan;101473.88;5076716;28;20035;-58
2022/08/21 06:05:47;;;;;;;15.93;7.40;;;;;;;15.93;nan;101475.22;5076470;28;20392;-57
2022/08/21 06:08:14;;;;;;;15.40;5.88;;;;;;;15.73;nan;101408.88;5094409;28;20043;-57
2022/08/21 06:10:39;;;;;;;19.98;6.50;;;;;;;16.08;nan;101471.84;5076143;28;20115;-55
2022/08/21 06:13:05;;;;;;;14.30;6.70;;;;;;;15.93;nan;101422.13;5094331;28;20134;-61
2022/08/21 06:15:30;;;;;;;17.63;6.53;;;;;;;16.28;nan;101469.19;5094581;28;20181;-60
2022/08/21 06:17:55;;;;;;;10.02;5.20;;;;;;;16.09;nan;101411.63;5076513;28;20073;-55
2022/08/21 06:20:21;;;;;;;15.18;5.75;;;;;;;16.44;nan;101457.81;5075945;28;20498;-59
2022/08/21 06:22:47;;;;;;;10.68;5.82;;;;;;;16.51;nan;101467.22;5076061;28;20036;-55
2022/08/21 06:25:12;;;;;;;17.30;6.07;;;;;;;16.57;nan;101453.69;5094073;28;20032;-54
2022/08/21 06:27:37;;;;;;;14.88;6.20;;;;;;;16.66;nan;101446.16;5094308;28;20032;-54
2022/08/21 06:30:04;;;;;;;13.07;5.55;;;;;;;16.77;nan;101451.81;5094221;28;20031;-56
2022/08/21 06:32:30;;;;;;;14.00;5.40;;;;;;;16.63;nan;101410.88;5092877;28;20089;-57
2022/08/21 06:34:55;;;;;;;13.15;5.88;;;;;;;16.97;nan;101460.59;5093953;28;20036;-62
2022/08/21 06:37:20;;;;;;;11.35;5.10;;;;;;;17.03;nan;101450.53;5075879;28;20046;-57
2022/08/21 06:39:46;;;;;;;15.60;5.05;;;;;;;17.16;nan;101467.59;5093737;28;20038;-56
2022/08/21 06:42:15;;;;;;;16.50;5.10;;;;;;;17.30;nan;101472.25;5093996;28;20125;-57
2022/08/21 06:44:41;;;;;;;14.77;5.53;;;;;;;17.39;nan;101463.81;5093792;28;20391;-58
2022/08/21 06:47:06;;;;;;;12.60;6.05;;;;;;;17.53;nan;101463.09;5093788;28;20043;-57
2022/08/21 06:49:31;;;;;;;12.68;5.32;;;;;;;17.42;nan;101421.91;5093769;28;20028;-62
2022/08/21 06:51:56;;;;;;;15.32;5.45;;;;;;;17.55;nan;101427.50;5093764;28;20032;-58
2022/08/21 06:54:22;;;;;;;15.52;5.25;;;;;;;17.75;nan;101437.97;5092263;28;20044;-54
2022/08/21 06:56:47;;;;;;;10.75;4.82;;;;;;;17.98;nan;101455.38;5093685;28;20433;-57
2022/08/21 06:59:13;;;;;;;12.88;4.40;;;;;;;17.94;nan;101427.22;5093677;28;20475;-58
2022/08/21 07:01:39;;;;;;;12.98;5.53;;;;;;;18.29;nan;101460.81;5093517;28;20038;-60
2022/08/21 07:04:04;;;;;;;9.80;5.30;;;;;;;18.38;nan;101454.97;5092252;28;20067;-57
2022/08/21 07:06:30;;;;;;;20.48;7.32;;;;;;;18.40;nan;101420.22;5093307;28;20050;-56
2022/08/21 07:08:55;;;;;;;8.48;5.03;;;;;;;18.85;nan;101468.34;5075174;28;20101;-59
2022/08/21 07:11:23;;;;;;;13.13;5.05;;;;;;;19.04;nan;101476.16;5093347;28;20067;-59
2022/08/21 07:13:51;;;;;;;16.13;4.97;;;;;;;19.05;nan;101440.53;5093634;28;20028;-53
2022/08/21 07:16:17;;;;;;;10.20;4.95;;;;;;;19.41;nan;101477.59;5091929;28;20032;-60
2022/08/21 07:18:42;;;;;;;10.02;4.20;;;;;;;19.19;nan;101429.91;5093290;28;20085;-57
2022/08/21 07:21:08;;;;;;;12.63;4.10;;;;;;;19.68;nan;101483.94;5074780;28;20483;-57
2022/08/21 07:23:37;;;;;;;20.63;4.57;;;;;;;19.85;nan;101496.31;5093018;28;20124;-57
2022/08/21 07:26:03;;;;;;;13.98;4.43;;;;;;;19.87;nan;101481.03;5075063;28;20492;-60
2022/08/21 07:28:29;;;;;;;13.90;4.55;;;;;;;19.70;nan;101452.69;5075037;28;20043;-57
2022/08/21 07:30:56;;;;;;;12.70;4.32;;;;;;;19.93;nan;101462.84;5074790;28;20032;-58
2022/08/21 07:33:21;;;;;;;10.93;4.30;;;;;;;;;;5074734;28;20514;-58
2022/08/21 07:35:47;;;;;;;11.55;3.75;;;;;;;;;;5092705;28;20036;-58
2022/08/21 07:38:12;;;;;;;10.35;4.60;;;;;;;19.90;nan;101430.09;5092685;28;20042;-56
2022/08/21 07:40:38;;;;;;;15.90;4.25;;;;;;;19.88;nan;101438.19;5074399;28;20046;-53
2022/08/21 07:43:04;;;;;;;14.00;5.30;;;;;;;20.22;nan;101487.75;5074712;28;20024;-59
2022/08/21 07:45:29;;;;;;;10.90;4.50;;;;;;;20.50;nan;101485.09;5092740;28;20391;-55
2022/08/21 07:47:55;;;;;;;11.95;3.88;;;;;;;20.92;nan;101453.84;5092842;28;20032;-57
2022/08/21 07:50:21;;;;;;;10.82;3.60;;;;;;;21.88;nan;101500.03;5092717;28;20081;-59
2022/08/21 07:52:47;;;;;;;8.77;3.25;;;;;;;22.26;nan;101454.44;5074702;28;20024;-58
2022/08/21 07:55:15;;;;;;;11.00;3.80;;;;;;;23.13;nan;101475.78;5092658;28;20046;-60
2022/08/21 07:57:40;;;;;;;13.30;4.03;;;;;;;23.65;nan;101530.03;5092712;28;20156;-57
2022/08/21 08:00:09;;;;;;;12.68;3.80;;;;;;;23.24;nan;101481.19;5092601;28;20080;-57
2022/08/21 08:02:35;;;;;;;8.57;3.58;;;;;;;22.86;nan;101468.81;5092184;28;20032;-58
2022/08/21 08:05:02;;;;;;;13.50;4.22;;;;;;;22.81;nan;101524.66;5074202;28;20437;-58
2022/08/21 08:07:27;;;;;;;11.93;3.50;;;;;;;22.31;nan;101479.09;5091855;28;20036;-58
2022/08/21 08:09:52;;;;;;;10.45;3.75;;;;;;;22.75;nan;101511.69;5073704;28;20039;-60
2022/08/21 08:12:18;;;;;;;11.52;3.70;;;;;;;22.64;nan;101471.34;5070572;28;20048;-59
2022/08/21 08:14:43;;;;;;;10.07;3.38;;;;;;;22.99;nan;101527.84;5071077;28;20029;-59
2022/08/21 08:17:09;;;;;;;9.15;3.40;;;;;;;23.25;nan;101509.78;5072143;28;20491;-55
2022/08/21 08:19:34;;;;;;;6.30;2.67;;;;;;;24.03;nan;101519.88;5072104;28;20029;-57
2022/08/21 08:22:00;;;;;;;7.38;2.67;;;;;;;24.37;nan;101466.97;5072027;28;20763;-64
2022/08/21 08:24:25;;;;;;;10.95;2.78;;;;;;;25.11;nan;101486.97;5070499;28;20033;-58
2022/08/21 08:26:50;;;;;;;10.27;2.15;;;;;;;26.12;nan;101540.28;5071429;28;20111;-56
2022/08/21 08:29:16;;;;;;;8.30;2.75;;;;;;;26.47;nan;101542.69;5076155;28;20033;-62
2022/08/21 08:31:41;;;;;;;9.68;3.20;;;;;;;26.58;nan;101557.91;5073677;28;20078;-63
2022/08/21 08:34:06;;;;;;;7.65;2.88;;;;;;;25.71;nan;101548.41;5076297;28;20087;-59
2022/08/21 08:36:36;;;;;;;12.00;3.42;;;;;;;25.00;nan;101492.38;5076050;28;20029;-57
2022/08/21 08:39:03;;;;;;;8.80;3.17;;;;;;;24.69;nan;101477.00;5058264;28;20115;-57
2022/08/21 08:41:30;;;;;;;10.05;2.47;;;;;;;25.27;nan;101526.97;5074667;28;20032;-54
2022/08/21 08:43:59;;;;;;;8.13;2.30;;;;;;;25.71;nan;101516.88;5074780;28;20086;-54
2022/08/21 08:46:35;;;;;;;10.10;3.47;;;;;;;25.99;nan;101487.53;5074772;28;20074;-58
2022/08/21 08:49:15;;;;;;;11.80;3.17;;;;;;;26.19;nan;101530.72;5058120;28;20499;-61
2022/08/21 08:51:53;;;;;;;12.40;3.00;;;;;;;25.89;nan;101525.22;5074563;28;20502;-55
2022/08/21 08:54:36;;;;;;;9.20;2.58;;;;;;;25.19;nan;101490.72;5074504;28;20029;-57
2022/08/21 08:57:03;;;;;;;10.85;3.05;;;;;;;24.73;nan;101546.59;5057668;28;20112;-60
2022/08/21 08:59:49;;;;;;;7.78;2.47;;;;;;;23.65;nan;101535.41;5074448;28;20036;-58
2022/08/21 09:02:15;;;;;;;8.90;1.92;;;;;;;23.05;nan;101531.91;5075548;28;20601;-59
2022/08/21 09:04:41;;;;;;;9.70;2.17;;;;;;;22.54;nan;101531.09;5075690;28;20032;-58
2022/08/21 09:07:47;;;;;;;5.65;2.05;;;;;;;21.99;nan;101518.03;5074233;28;20036;-59
2022/08/21 09:10:22;;;;;;;5.05;2.10;;;;;;;21.59;nan;101518.06;5091159;28;20029;-58
2022/08/21 09:13:12;;;;;;;7.07;2.10;;;;;;;21.28;nan;101513.00;5090993;28;20055;-58
2022/08/21 09:15:46;;;;;;;8.65;2.05;;;;;;;21.30;nan;101509.31;5075266;28;20031;-58
2022/08/21 09:18:17;;;;;;;7.70;2.67;;;;;;;21.27;nan;101511.31;5075070;28;20035;-57
2022/08/21 09:21:05;;;;;;;6.95;1.77;;;;;;;21.38;nan;101518.63;5075539;28;20547;-59
2022/08/21 09:23:47;;;;;;;5.90;1.70;;;;;;;21.45;nan;101512.78;5070942;28;20036;-55
2022/08/21 09:26:23;;;;;;;9.23;2.72;;;;;;;22.09;nan;101527.19;5073660;28;20024;-54
2022/08/21 09:28:54;;;;;;;4.28;1.73;;;;;;;22.21;nan;101473.53;5090923;28;20025;-56
2022/08/21 09:31:28;;;;;;;5.30;1.75;;;;;;;22.62;nan;101532.28;5074843;28;20039;-55
2022/08/21 09:34:02;;;;;;;7.50;1.90;;;;;;;22.61;nan;101538.63;5074625;28;20117;-56
2022/08/21 09:36:40;;;;;;;3.78;1.73;;;;;;;22.36;nan;101490.34;5075096;28;20403;-57
2022/08/21 09:39:07;;;;;;;6.53;2.10;;;;;;;22.32;nan;101484.38;5085037;28;20040;-60
2022/08/21 09:41:35;;;;;;;4.93;2.00;;;;;;;22.50;nan;101484.88;5072353;28;20532;-59
2022/08/21 09:44:01;;;;;;;6.10;2.40;;;;;;;23.37;nan;101557.22;5073239;28;20024;-58
2022/08/21 09:46:47;;;;;;;5.35;2.00;;;;;;;24.27;nan;101540.47;5072192;28;20029;-61
2022/08/21 09:49:28;;;;;;;6.80;2.35;;;;;;;25.80;nan;101558.41;5053253;28;20071;-56
2022/08/21 09:51:54;;;;;;;5.80;1.80;;;;;;;25.90;nan;101521.56;5053781;28;20037;-57
2022/08/21 09:54:21;;;;;;;5.63;1.65;;;;;;;26.28;nan;101562.31;5053213;28;20060;-58
2022/08/21 09:57:38;;;;;;;5.55;1.65;;;;;;;25.61;nan;101569.88;5051538;28;20384;-58
2022/08/21 10:00:30;;;;;;;4.97;1.70;;;;;;;24.73;nan;101568.16;5025829;28;20071;-57
2022/08/21 10:03:12;;;;;;;6.45;1.67;;;;;;;23.65;nan;101521.09;5051905;28;20380;-61
2022/08/21 10:05:39;;;;;;;4.55;1.55;;;;;;;23.09;nan;101496.63;5053091;28;20119;-57
2022/08/21 10:08:05;;;;;;;8.15;2.05;;;;;;;23.02;nan;101537.50;5052981;28;20033;-57
2022/08/21 10:10:32;;;;;;;5.20;1.77;;;;;;;22.76;nan;101526.84;5055372;28;20484;-58
2022/08/21 10:13:13;;;;;;;4.65;1.55;;;;;;;22.57;nan;101529.06;5056003;28;20457;-61
2022/08/21 10:15:54;;;;;;;4.45;1.85;;;;;;;23.56;nan;101540.59;5039410;28;20036;-57
2022/08/21 10:18:39;;;;;;;7.03;1.83;;;;;;;25.14;nan;101548.66;5073878;28;20086;-56
2022/08/21 10:21:12;;;;;;;7.28;2.08;;;;;;;26.79;nan;101556.06;5074115;28;20037;-59
2022/08/21 10:24:03;;;;;;;7.90;1.98;;;;;;;28.14;nan;101585.00;5074050;28;20032;-59
2022/08/21 10:26:43;;;;;;;6.28;2.35;;;;;;;29.37;nan;101583.84;5056044;28;20032;-58
2022/08/21 10:30:00;;;;;;;9.30;2.63;;;;;;;29.10;nan;101587.38;5073740;28;20051;-59
2022/08/21 10:32:59;;;;;;;8.25;2.03;;;;;;;28.74;nan;101532.25;5031549;28;20037;-58
2022/08/21 10:35:30;;;;;;;6.20;2.38;;;;;;;28.69;nan;101542.66;5072687;28;20121;-63
2022/08/21 10:38:27;;;;;;;8.85;1.83;;;;;;;27.84;nan;101590.56;5039802;28;20061;-60
2022/08/21 10:41:03;;;;;;;6.45;2.22;;;;;;;26.69;nan;101577.59;5073490;28;20075;-59
2022/08/21 10:43:38;;;;;;;4.93;1.88;;;;;;;26.09;nan;101551.38;5055594;28;20387;-58
2022/08/21 10:46:13;;;;;;;11.10;2.33;;;;;;;25.36;nan;101561.25;5055844;28;20059;-61
2022/08/21 10:49:00;;;;;;;5.22;2.05;;;;;;;25.43;nan;101555.19;5073586;28;20120;-57
2022/08/21 10:51:33;;;;;;;8.85;2.60;;;;;;;26.53;nan;101568.28;5072389;28;20376;-54
2022/08/21 10:53:58;;;;;;;6.28;2.42;;;;;;;27.66;nan;101571.47;5055352;28;20127;-60
2022/08/21 10:56:28;;;;;;;8.10;2.17;;;;;;;28.65;nan;101568.38;5073620;28;20484;-60
2022/08/21 10:59:20;;;;;;;7.22;2.50;;;;;;;29.74;nan;101581.00;5073387;28;20821;-58
2022/08/21 11:01:51;;;;;;;6.72;1.90;;;;;;;30.26;nan;101596.41;5068975;28;20036;-58
2022/08/21 11:04:25;;;;;;;6.53;1.80;;;;;;;31.00;nan;101598.59;5055103;28;20369;-60
2022/08/21 11:06:54;;;;;;;6.90;1.90;;;;;;;30.89;nan;101607.00;5038707;28;20033;-60
2022/08/21 11:09:21;;;;;;;6.95;2.83;;;;;;;30.81;nan;101605.09;5038607;28;20458;-65
2022/08/21 11:11:55;;;;;;;4.82;2.20;;;;;;;30.92;nan;101601.22;5054969;28;20495;-65
2022/08/21 11:14:45;;;;;;;8.10;2.03;;;;;;;30.74;nan;101600.44;5038477;28;20024;-66
2022/08/21 11:17:13;;;;;;;5.15;1.90;;;;;;;30.14;nan;101565.09;5073104;28;20032;-63
2022/08/21 11:20:02;;;;;;;5.20;1.70;;;;;;;29.76;nan;101574.41;5072971;28;20035;-66
2022/08/21 11:22:37;;;;;;;4.93;1.77;;;;;;;28.49;nan;101598.75;5072876;28;20136;-62
2022/08/21 11:25:11;;;;;;;7.90;3.30;;;;;;;27.03;nan;101585.44;5072735;28;20047;-62
2022/08/21 11:27:42;;;;;;;10.02;2.15;;;;;;;27.10;nan;101587.44;5072711;28;20399;-65
2022/08/21 11:30:08;;;;;;;7.90;2.22;;;;;;;27.03;nan;101543.03;5054978;28;20035;-66
2022/08/21 11:32:58;;;;;;;4.95;2.00;;;;;;;26.70;nan;101586.56;5054896;28;20111;-67
2022/08/21 11:35:32;;;;;;;7.68;1.77;;;;;;;26.23;nan;101529.47;5054662;28;20036;-66
2022/08/21 11:38:03;;;;;;;6.68;1.92;;;;;;;27.89;nan;101589.13;5055037;28;20037;-66
2022/08/21 11:40:37;;;;;;;6.53;1.70;;;;;;;28.68;nan;101603.28;5072636;28;20036;-67
2022/08/21 11:43:17;;;;;;;7.18;1.85;;;;;;;28.71;nan;101561.50;5072497;28;20086;-65